Time;durP1;ratioP1;P1;durP2;ratioP2;P2;SDS_P1;SDS_P2;PMS_P1;PMS_P2;Temp;Humidity;BMP_temperature;BMP_pressure;BME280_temperature;BME280_humidity;BME280_pressure;Samples;Min_cycle;Max_cycle;Signal;HPM_P1;HPM_P2
2022/09/25 00:01:10;;;;;;;3.15;1.55;;;17.20;66.90;;;;;;5054763;28;20182;-66
2022/09/25 00:03:36;;;;;;;4.97;1.48;;;17.20;66.90;;;;;;5055090;28;20170;-66
2022/09/25 00:06:12;;;;;;;6.65;1.67;;;17.20;66.90;;;;;;5053858;28;20209;-66
2022/09/25 00:08:38;;;;;;;3.33;1.65;;;17.20;66.90;;;;;;5053949;28;20202;-66
2022/09/25 00:11:06;;;;;;;2.72;1.40;;;17.20;66.90;;;;;;5054394;28;20230;-67
2022/09/25 00:13:32;;;;;;;1.67;1.30;;;17.20;66.90;;;;;;5054334;28;20179;-66
2022/09/25 00:15:58;;;;;;;2.55;1.40;;;17.20;66.90;;;;;;5054640;28;20703;-67
2022/09/25 00:21:10;;;;;;;2.42;1.30;;;17.20;66.90;;;;;;5053773;28;20178;-66
2022/09/25 00:23:36;;;;;;;3.10;1.50;;;17.20;66.80;;;;;;5054505;28;20187;-66
2022/09/25 00:26:02;;;;;;;2.28;1.58;;;17.20;66.80;;;;;;5054303;28;20174;-66
2022/09/25 00:28:30;;;;;;;3.65;1.50;;;17.20;66.90;;;;;;5053798;28;20178;-66
2022/09/25 00:30:56;;;;;;;2.15;1.33;;;17.20;66.90;;;;;;5054611;28;20195;-66
2022/09/25 00:33:22;;;;;;;2.10;1.40;;;17.20;66.80;;;;;;5054665;28;20179;-66
2022/09/25 00:35:48;;;;;;;2.22;1.20;;;17.20;66.80;;;;;;5053708;28;20575;-66
2022/09/25 00:38:13;;;;;;;2.35;1.25;;;17.20;66.70;;;;;;5054178;28;20219;-66
2022/09/25 00:40:39;;;;;;;2.72;1.50;;;17.20;66.80;;;;;;5054339;28;20671;-66
2022/09/25 00:43:10;;;;;;;2.92;1.40;;;17.20;66.80;;;;;;5053529;28;20167;-66
2022/09/25 00:45:35;;;;;;;2.42;1.60;;;17.20;66.80;;;;;;5053284;28;20174;-66
2022/09/25 00:48:05;;;;;;;2.10;1.17;;;17.10;66.70;;;;;;5052264;28;20179;-65
2022/09/25 00:50:48;;;;;;;1.90;1.42;;;17.10;66.70;;;;;;5054251;28;20182;-65
2022/09/25 00:53:16;;;;;;;1.83;1.40;;;17.10;66.80;;;;;;5053767;28;20665;-66
2022/09/25 00:55:42;;;;;;;2.20;1.42;;;17.10;66.80;;;;;;5052049;28;20190;-66
2022/09/25 00:58:08;;;;;;;2.33;1.48;;;17.10;66.80;;;;;;5053787;28;20203;-66
2022/09/25 01:00:33;;;;;;;2.67;1.35;;;17.10;66.80;;;;;;5053019;28;20224;-66
2022/09/25 01:02:59;;;;;;;2.35;1.27;;;17.10;66.80;;;;;;5053032;28;20182;-66
2022/09/25 01:05:29;;;;;;;2.97;1.63;;;17.10;66.70;;;;;;5052830;28;20645;-66
2022/09/25 01:07:56;;;;;;;1.70;1.25;;;17.10;66.80;;;;;;5052768;28;20175;-66
2022/09/25 01:10:21;;;;;;;2.10;1.35;;;17.10;66.70;;;;;;5051725;28;20234;-66
2022/09/25 01:12:48;;;;;;;2.38;1.58;;;17.10;66.70;;;;;;5052697;28;20175;-66
2022/09/25 01:15:15;;;;;;;1.92;1.45;;;17.10;66.70;;;;;;5052119;28;20568;-67
2022/09/25 01:18:20;;;;;;;1.33;1.20;;;17.10;66.70;;;;;;5052985;28;20288;-66
2022/09/25 01:20:51;;;;;;;2.30;1.33;;;17.10;66.70;;;;;;5042218;28;20191;-66
2022/09/25 01:24:07;;;;;;;2.53;1.10;;;17.00;66.60;;;;;;5052708;28;20179;-66
2022/09/25 01:26:35;;;;;;;1.63;1.30;;;17.10;66.60;;;;;;5051173;28;20751;-66
2022/09/25 01:29:21;;;;;;;2.92;1.23;;;17.10;66.60;;;;;;5051094;28;20202;-66
2022/09/25 01:31:47;;;;;;;2.63;1.27;;;17.00;66.50;;;;;;5014146;28;20236;-65
2022/09/25 01:34:19;;;;;;;2.65;1.17;;;17.00;66.40;;;;;;5053173;28;20266;-66
2022/09/25 01:36:48;;;;;;;2.28;1.38;;;17.00;67.20;;;;;;5051651;28;20228;-66
2022/09/25 01:39:21;;;;;;;1.75;1.30;;;17.00;66.40;;;;;;5051149;28;20546;-66
2022/09/25 01:42:18;;;;;;;1.70;1.42;;;17.00;66.30;;;;;;5051957;28;20664;-65
2022/09/25 01:44:56;;;;;;;2.55;1.20;;;17.00;66.50;;;;;;5052090;28;20557;-66
2022/09/25 01:47:25;;;;;;;3.20;1.63;;;17.00;66.30;;;;;;5051759;28;20638;-65
2022/09/25 01:49:54;;;;;;;2.75;1.38;;;17.00;66.30;;;;;;5053100;28;20541;-65
2022/09/25 01:52:24;;;;;;;2.50;1.30;;;17.00;66.30;;;;;;5052010;28;20175;-65
2022/09/25 01:54:53;;;;;;;2.28;1.38;;;17.00;66.40;;;;;;5052138;28;20199;-65
2022/09/25 01:57:24;;;;;;;1.30;0.90;;;17.00;66.30;;;;;;5051654;28;20218;-65
2022/09/25 02:00:04;;;;;;;2.67;1.10;;;17.00;66.30;;;;;;5051031;28;20173;-65
2022/09/25 02:02:35;;;;;;;1.65;1.23;;;17.00;66.20;;;;;;5051781;28;20186;-65
2022/09/25 02:05:16;;;;;;;1.42;1.20;;;17.00;66.30;;;;;;5051685;28;20259;-65
2022/09/25 02:07:50;;;;;;;2.50;1.40;;;17.00;66.20;;;;;;5051160;28;20178;-66
2022/09/25 02:10:19;;;;;;;2.80;1.10;;;17.00;66.20;;;;;;5051304;28;20231;-66
2022/09/25 02:12:46;;;;;;;2.60;1.10;;;16.90;66.10;;;;;;5050899;28;20171;-66
2022/09/25 02:15:19;;;;;;;1.25;0.88;;;16.90;66.20;;;;;;5051430;28;20563;-66
2022/09/25 02:21:35;;;;;;;1.58;0.95;;;16.90;66.10;;;;;;5050794;28;20225;-66
2022/09/25 02:24:08;;;;;;;1.13;0.90;;;16.90;66.20;;;;;;5051360;28;20179;-66
2022/09/25 02:26:34;;;;;;;2.47;1.20;;;16.90;66.10;;;;;;5049416;28;20198;-66
2022/09/25 02:29:00;;;;;;;3.10;1.35;;;16.90;66.10;;;;;;5049955;28;20211;-65
2022/09/25 02:31:37;;;;;;;1.50;1.10;;;16.90;66.20;;;;;;5051483;28;20182;-66
2022/09/25 02:34:03;;;;;;;3.80;1.30;;;16.90;66.10;;;;;;5049496;28;20177;-65
2022/09/25 02:36:28;;;;;;;1.63;0.90;;;16.90;66.00;;;;;;5052209;28;20175;-66
2022/09/25 02:38:54;;;;;;;1.60;1.10;;;16.90;66.00;;;;;;5052098;28;20214;-66
2022/09/25 02:41:32;;;;;;;4.88;0.98;;;16.90;66.00;;;;;;5051068;28;20167;-65
2022/09/25 02:44:16;;;;;;;1.10;1.00;;;16.90;66.00;;;;;;5050471;28;20175;-65
2022/09/25 02:47:06;;;;;;;3.25;1.13;;;16.90;66.00;;;;;;5053595;28;20171;-65
2022/09/25 02:49:51;;;;;;;1.75;1.20;;;16.90;66.00;;;;;;5055334;28;20179;-65
2022/09/25 02:52:32;;;;;;;3.22;1.00;;;16.90;65.90;;;;;;5054585;28;20183;-65
2022/09/25 02:55:03;;;;;;;1.67;0.88;;;16.90;65.90;;;;;;5053736;28;20175;-66
2022/09/25 02:57:50;;;;;;;1.23;0.90;;;16.90;66.00;;;;;;5054625;28;20336;-65
2022/09/25 03:00:16;;;;;;;2.30;1.20;;;16.80;65.90;;;;;;5054158;28;20716;-66
2022/09/25 03:02:42;;;;;;;1.23;0.93;;;16.90;66.00;;;;;;5053675;28;20182;-66
2022/09/25 03:05:10;;;;;;;1.90;1.23;;;16.90;66.00;;;;;;5055174;28;20179;-66
2022/09/25 03:08:36;;;;;;;2.88;1.33;;;16.90;66.00;;;;;;5054456;28;20183;-66
2022/09/25 03:10:21;;;;;;;1.45;0.90;;;16.90;65.90;;;;;;5053110;28;20230;-67
2022/09/25 03:12:46;;;;;;;2.05;0.93;;;16.80;65.90;;;;;;5054190;28;20172;-66
2022/09/25 03:15:12;;;;;;;1.73;0.90;;;16.80;65.80;;;;;;5055138;28;20213;-66
2022/09/25 03:17:40;;;;;;;1.40;0.90;;;16.80;65.80;;;;;;5054441;28;20217;-66
2022/09/25 03:20:09;;;;;;;1.90;1.02;;;16.80;65.80;;;;;;5055175;28;20175;-66
2022/09/25 03:22:35;;;;;;;2.97;1.20;;;16.80;65.90;;;;;;5055455;28;20232;-66
2022/09/25 03:25:01;;;;;;;2.22;1.08;;;16.80;65.90;;;;;;5054230;28;20171;-66
2022/09/25 03:27:27;;;;;;;2.38;0.90;;;16.80;65.90;;;;;;5055221;28;20262;-66
2022/09/25 03:29:54;;;;;;;1.40;0.80;;;16.80;65.80;;;;;;5054342;28;20183;-65
2022/09/25 03:32:20;;;;;;;1.77;0.90;;;16.80;65.80;;;;;;5055080;28;20253;-65
2022/09/25 03:34:45;;;;;;;1.00;0.82;;;16.80;65.90;;;;;;5055154;28;20608;-65
2022/09/25 03:37:11;;;;;;;1.48;1.00;;;16.80;65.70;;;;;;5053925;28;20218;-65
2022/09/25 03:39:36;;;;;;;1.63;0.93;;;16.80;65.70;;;;;;5054903;28;20202;-65
2022/09/25 03:42:03;;;;;;;2.38;1.02;;;16.80;65.70;;;;;;5054680;28;20248;-65
2022/09/25 03:44:28;;;;;;;2.30;0.80;;;16.80;65.70;;;;;;5054112;28;20167;-65
2022/09/25 03:46:54;;;;;;;0.77;0.75;;;16.80;65.80;;;;;;5054968;28;20179;-65
2022/09/25 03:49:19;;;;;;;1.45;1.10;;;16.80;65.60;;;;;;5054581;28;20163;-65
2022/09/25 03:51:45;;;;;;;1.60;0.70;;;16.80;65.70;;;;;;5054049;28;20201;-64
2022/09/25 03:54:10;;;;;;;1.50;0.90;;;16.70;65.60;;;;;;5054232;28;20652;-65
2022/09/25 03:56:36;;;;;;;1.73;0.82;;;16.80;65.60;;;;;;5054602;28;20634;-64
2022/09/25 03:59:01;;;;;;;2.88;0.80;;;16.80;65.70;;;;;;5052674;28;20215;-65
2022/09/25 04:01:27;;;;;;;1.70;1.10;;;16.70;65.50;;;;;;5054430;28;20179;-65
2022/09/25 04:03:52;;;;;;;1.65;0.70;;;16.70;65.60;;;;;;5054388;28;20187;-64
2022/09/25 04:06:22;;;;;;;0.77;0.77;;;16.80;65.50;;;;;;5053545;28;20256;-65
2022/09/25 04:08:48;;;;;;;1.40;0.90;;;16.70;65.60;;;;;;5054366;28;20179;-65
2022/09/25 04:11:15;;;;;;;1.67;0.90;;;16.70;65.60;;;;;;5053836;28;20634;-65
2022/09/25 04:13:41;;;;;;;0.90;0.90;;;16.70;65.50;;;;;;5053532;28;20276;-66
2022/09/25 04:16:07;;;;;;;1.25;0.85;;;16.70;65.60;;;;;;5054284;28;20629;-65
2022/09/25 04:18:32;;;;;;;0.88;0.77;;;16.70;65.60;;;;;;5054266;28;20238;-65
2022/09/25 04:20:59;;;;;;;1.17;0.90;;;16.70;65.50;;;;;;5053224;28;20535;-65
2022/09/25 04:23:24;;;;;;;2.05;0.95;;;16.70;65.60;;;;;;5054138;28;20337;-65
2022/09/25 04:25:50;;;;;;;1.13;0.80;;;16.70;65.50;;;;;;5054164;28;20254;-65
2022/09/25 04:28:16;;;;;;;1.48;0.60;;;16.70;65.50;;;;;;5052912;28;20179;-65
2022/09/25 04:30:41;;;;;;;1.35;0.80;;;16.70;66.50;;;;;;5054066;28;20216;-65
2022/09/25 04:35:52;;;;;;;1.30;0.68;;;16.70;65.60;;;;;;5054102;28;20167;-65
2022/09/25 04:38:18;;;;;;;0.70;0.68;;;16.70;65.40;;;;;;5053578;28;20199;-66
2022/09/25 04:40:44;;;;;;;1.67;1.08;;;16.70;65.50;;;;;;5052981;28;20194;-65
2022/09/25 04:43:10;;;;;;;2.03;1.00;;;16.70;65.50;;;;;;5053593;28;20190;-65
2022/09/25 04:45:36;;;;;;;2.40;0.80;;;16.70;65.50;;;;;;5053513;28;20186;-65
2022/09/25 04:48:02;;;;;;;1.35;0.80;;;16.70;65.40;;;;;;5051545;28;20179;-65
2022/09/25 04:50:27;;;;;;;2.13;0.90;;;16.70;65.50;;;;;;5053518;28;20560;-65
2022/09/25 04:52:53;;;;;;;2.00;0.80;;;16.70;65.50;;;;;;5053536;28;20181;-65
2022/09/25 04:55:23;;;;;;;1.50;1.13;;;16.60;65.40;;;;;;5052316;28;20199;-65
2022/09/25 04:57:54;;;;;;;2.63;1.08;;;16.70;65.50;;;;;;5053477;28;20210;-65
2022/09/25 05:00:20;;;;;;;1.60;0.88;;;16.60;65.30;;;;;;5053187;28;20179;-66
2022/09/25 05:02:46;;;;;;;1.02;0.85;;;16.60;65.40;;;;;;5052672;28;20179;-65
2022/09/25 05:05:11;;;;;;;1.38;0.80;;;16.70;65.50;;;;;;5053123;28;20171;-65
2022/09/25 05:07:38;;;;;;;2.50;0.75;;;16.70;65.40;;;;;;5052170;28;20225;-65
2022/09/25 05:10:07;;;;;;;1.77;0.77;;;16.60;65.40;;;;;;5051062;28;20231;-66
2022/09/25 05:12:33;;;;;;;2.63;0.90;;;16.60;65.40;;;;;;5053313;28;20179;-66
2022/09/25 05:14:59;;;;;;;1.40;0.70;;;16.60;65.20;;;;;;5052788;28;20236;-66
2022/09/25 05:17:24;;;;;;;0.73;0.73;;;16.60;65.10;;;;;;5052300;28;20615;-66
2022/09/25 05:19:50;;;;;;;1.65;0.80;;;16.60;65.20;;;;;;5052929;28;20586;-65
2022/09/25 05:22:15;;;;;;;1.65;0.73;;;16.60;65.40;;;;;;5052200;28;20175;-66
2022/09/25 05:24:41;;;;;;;1.10;0.75;;;16.60;65.30;;;;;;5052540;28;20175;-66
2022/09/25 05:27:07;;;;;;;1.45;0.70;;;16.60;65.20;;;;;;5052670;28;20171;-65
2022/09/25 05:29:33;;;;;;;1.33;0.98;;;16.60;65.10;;;;;;5051942;28;20171;-65
2022/09/25 05:31:59;;;;;;;1.48;0.77;;;16.60;65.20;;;;;;5052459;28;20609;-64
2022/09/25 05:34:24;;;;;;;0.85;0.85;;;16.60;65.20;;;;;;5051704;28;20469;-65
2022/09/25 05:36:51;;;;;;;0.98;0.70;;;16.60;65.10;;;;;;5052000;28;20704;-65
2022/09/25 05:39:16;;;;;;;2.00;0.82;;;16.60;65.20;;;;;;5052382;28;20563;-65
2022/09/25 05:41:42;;;;;;;1.52;0.70;;;16.60;65.20;;;;;;5052789;28;20171;-65
2022/09/25 05:44:08;;;;;;;1.70;0.93;;;16.60;65.10;;;;;;5051584;28;20167;-65
2022/09/25 05:46:37;;;;;;;1.50;0.80;;;16.60;65.10;;;;;;5052642;28;20240;-65
2022/09/25 05:49:03;;;;;;;1.73;0.80;;;16.60;65.00;;;;;;5052094;28;20664;-65
2022/09/25 05:51:28;;;;;;;1.85;0.90;;;16.60;65.10;;;;;;5051685;28;20179;-65
2022/09/25 05:53:54;;;;;;;1.10;0.73;;;16.60;65.10;;;;;;5052387;28;20187;-65
2022/09/25 05:56:19;;;;;;;0.60;0.57;;;16.60;65.00;;;;;;5052182;28;20163;-65
2022/09/25 05:58:46;;;;;;;0.80;0.70;;;16.60;65.10;;;;;;5051460;28;20219;-65
2022/09/25 06:01:11;;;;;;;1.65;0.70;;;16.60;65.10;;;;;;5052059;28;20179;-65
2022/09/25 06:03:37;;;;;;;0.80;0.80;;;16.60;65.00;;;;;;5052281;28;20262;-65
2022/09/25 06:06:02;;;;;;;2.50;1.00;;;16.60;65.00;;;;;;5051267;28;20258;-66
2022/09/25 06:08:31;;;;;;;1.55;0.70;;;16.60;64.90;;;;;;5052218;28;20641;-65
2022/09/25 06:10:57;;;;;;;1.20;0.70;;;16.60;65.00;;;;;;5051666;28;20234;-66
2022/09/25 06:13:24;;;;;;;2.28;0.82;;;16.60;65.00;;;;;;5051650;28;20703;-66
2022/09/25 06:15:51;;;;;;;1.80;0.77;;;16.60;65.00;;;;;;5052017;28;20179;-66
2022/09/25 06:18:17;;;;;;;0.60;0.60;;;16.60;65.00;;;;;;5051916;28;20284;-66
2022/09/25 06:20:42;;;;;;;1.75;0.77;;;16.60;65.10;;;;;;5051588;28;20198;-66
2022/09/25 06:23:08;;;;;;;1.65;0.90;;;16.60;64.90;;;;;;5058183;28;20547;-65
2022/09/25 06:25:35;;;;;;;1.35;0.73;;;16.60;64.90;;;;;;5058380;28;20198;-65
2022/09/25 06:28:00;;;;;;;2.60;0.80;;;16.60;65.00;;;;;;5058463;28;20268;-65
2022/09/25 06:30:32;;;;;;;2.00;0.95;;;16.60;64.90;;;;;;5058686;28;20194;-65
2022/09/25 06:32:58;;;;;;;1.60;0.80;;;16.60;64.80;;;;;;5057728;28;20205;-65
2022/09/25 06:35:25;;;;;;;1.77;0.80;;;16.60;65.00;;;;;;5058608;28;20195;-65
2022/09/25 06:37:50;;;;;;;2.15;0.95;;;16.60;64.90;;;;;;5059000;28;20271;-65
2022/09/25 06:40:16;;;;;;;1.33;0.70;;;16.70;64.40;;;;;;5058233;28;20298;-66
2022/09/25 06:42:41;;;;;;;0.85;0.63;;;16.70;64.40;;;;;;5059143;28;20223;-65
2022/09/25 06:45:09;;;;;;;1.98;0.80;;;16.80;64.50;;;;;;5058929;28;20244;-65
2022/09/25 06:47:35;;;;;;;3.22;1.38;;;16.80;64.10;;;;;;5058346;28;20178;-64
2022/09/25 06:50:00;;;;;;;1.25;0.85;;;16.90;64.10;;;;;;5058956;28;20250;-65
2022/09/25 06:52:26;;;;;;;1.15;0.65;;;17.00;64.10;;;;;;5059152;28;20179;-65
2022/09/25 06:54:51;;;;;;;1.08;0.73;;;17.10;64.10;;;;;;5058579;28;20581;-65
2022/09/25 06:57:17;;;;;;;1.10;0.50;;;17.20;63.90;;;;;;5058695;28;20615;-65
2022/09/25 06:59:42;;;;;;;0.70;0.70;;;17.30;64.10;;;;;;5059046;28;20550;-66
2022/09/25 07:04:52;;;;;;;2.03;0.90;;;17.60;63.40;;;;;;5057966;28;20213;-66
2022/09/25 07:07:19;;;;;;;2.33;0.90;;;17.80;63.20;;;;;;5058342;28;20211;-65
2022/09/25 07:09:47;;;;;;;1.60;0.65;;;18.00;62.90;;;;;;5068904;28;20218;-65
2022/09/25 07:12:13;;;;;;;1.48;0.80;;;18.10;62.80;;;;;;5063763;28;20625;-65
2022/09/25 07:14:40;;;;;;;2.05;0.85;;;18.30;62.30;;;;;;5058772;28;20190;-66
2022/09/25 07:17:06;;;;;;;1.38;0.60;;;18.40;62.10;;;;;;5058871;28;20199;-65
2022/09/25 07:19:32;;;;;;;2.88;0.88;;;18.40;62.00;;;;;;5059272;28;20269;-64
2022/09/25 07:21:58;;;;;;;2.33;1.05;;;18.40;62.00;;;;;;5057783;28;20546;-63
2022/09/25 07:24:26;;;;;;;2.92;0.98;;;18.30;61.90;;;;;;5058793;28;20209;-62
2022/09/25 07:26:52;;;;;;;3.10;0.82;;;18.30;62.00;;;;;;5059014;28;20233;-62
2022/09/25 07:29:17;;;;;;;3.42;1.15;;;18.20;62.20;;;;;;5057808;28;20171;-63
2022/09/25 07:31:43;;;;;;;2.00;1.08;;;18.20;62.40;;;;;;5058687;28;20167;-62
2022/09/25 07:34:09;;;;;;;1.55;0.95;;;18.10;62.50;;;;;;5054681;28;20182;-63
2022/09/25 07:36:37;;;;;;;5.22;1.25;;;18.10;62.70;;;;;;5054981;28;20190;-63
2022/09/25 07:39:06;;;;;;;2.80;1.08;;;18.10;63.00;;;;;;5055243;28;20210;-61
2022/09/25 07:41:32;;;;;;;1.48;1.00;;;18.10;63.20;;;;;;5055457;28;20175;-60
2022/09/25 07:43:57;;;;;;;2.13;0.88;;;18.10;63.30;;;;;;5054382;28;20266;-64
2022/09/25 07:46:26;;;;;;;2.55;0.85;;;18.10;63.40;;;;;;5055389;28;20610;-65
2022/09/25 07:48:52;;;;;;;3.30;1.15;;;18.10;63.50;;;;;;5054405;28;20175;-65
2022/09/25 07:51:17;;;;;;;3.95;1.10;;;18.10;63.70;;;;;;5054561;28;20716;-65
2022/09/25 07:53:44;;;;;;;2.22;1.13;;;18.10;63.70;;;;;;5055325;28;20645;-63
2022/09/25 07:56:10;;;;;;;4.00;0.90;;;18.10;63.60;;;;;;5054854;28;20186;-62
2022/09/25 07:58:36;;;;;;;1.85;0.80;;;18.10;63.90;;;;;;5054333;28;20221;-64
2022/09/25 08:01:03;;;;;;;3.15;1.15;;;18.00;64.00;;;;;;5054626;28;20254;-62
2022/09/25 08:03:28;;;;;;;2.80;1.10;;;18.10;64.10;;;;;;5055131;28;20186;-63
2022/09/25 08:06:01;;;;;;;2.47;0.85;;;18.10;64.00;;;;;;5054420;28;20175;-62
2022/09/25 08:08:27;;;;;;;2.95;1.08;;;18.10;64.10;;;;;;5054872;28;20179;-62
2022/09/25 08:10:54;;;;;;;3.60;1.00;;;18.10;64.20;;;;;;5054745;28;20226;-62
2022/09/25 08:13:21;;;;;;;2.30;0.90;;;18.10;64.20;;;;;;5053947;28;20258;-63
2022/09/25 08:15:47;;;;;;;2.08;0.90;;;18.10;64.20;;;;;;5055069;28;20175;-63
2022/09/25 08:18:13;;;;;;;1.85;0.70;;;18.10;64.20;;;;;;5053877;28;20230;-64
2022/09/25 08:20:39;;;;;;;3.03;1.00;;;18.10;64.20;;;;;;5054898;28;20508;-63
2022/09/25 08:23:05;;;;;;;2.97;1.00;;;18.20;64.30;;;;;;5054408;28;20313;-63
2022/09/25 08:25:30;;;;;;;2.50;0.95;;;18.20;64.30;;;;;;5054015;28;20182;-63
2022/09/25 08:27:56;;;;;;;4.32;0.80;;;18.10;64.20;;;;;;5054504;28;20175;-63
2022/09/25 08:30:22;;;;;;;2.17;0.85;;;18.20;64.30;;;;;;5054768;28;20163;-63
2022/09/25 08:32:47;;;;;;;1.20;0.88;;;18.30;64.30;;;;;;5053906;28;20175;-62
2022/09/25 08:35:13;;;;;;;3.42;0.90;;;18.30;65.20;;;;;;5054357;28;20261;-64
2022/09/25 08:37:40;;;;;;;3.28;1.20;;;18.30;64.30;;;;;;5054438;28;20677;-62
2022/09/25 08:40:16;;;;;;;2.95;1.13;;;18.30;64.30;;;;;;5053406;28;20186;-64
2022/09/25 08:42:42;;;;;;;4.47;0.93;;;18.40;64.30;;;;;;5054332;28;20534;-63
2022/09/25 08:50:43;;;;;;;3.60;1.15;;;18.40;64.30;;;;;;5053311;28;20167;-64
2022/09/25 08:53:27;;;;;;;3.58;0.88;;;18.40;64.40;;;;;;5053632;28;20175;-64
2022/09/25 08:58:44;;;;;;;1.77;0.70;;;18.50;64.40;;;;;;5053113;28;20214;-63
2022/09/25 09:01:13;;;;;;;1.50;0.88;;;18.50;64.30;;;;;;5051786;28;20517;-63
2022/09/25 09:04:04;;;;;;;2.15;0.90;;;18.60;64.30;;;;;;5052878;28;20262;-63
2022/09/25 09:06:30;;;;;;;3.20;1.00;;;18.50;64.30;;;;;;5052558;28;20549;-63
2022/09/25 09:09:16;;;;;;;2.63;0.90;;;18.60;64.30;;;;;;5052057;28;20167;-63
2022/09/25 09:11:47;;;;;;;6.32;0.85;;;18.60;64.20;;;;;;5052483;28;20195;-64
2022/09/25 09:14:15;;;;;;;2.03;0.80;;;18.60;64.20;;;;;;5053445;28;20262;-64
2022/09/25 09:16:47;;;;;;;2.17;0.80;;;18.60;64.20;;;;;;5052058;28;20266;-63
2022/09/25 09:19:13;;;;;;;1.95;0.95;;;18.70;64.20;;;;;;5052226;28;20226;-64
2022/09/25 09:21:47;;;;;;;3.47;1.15;;;18.70;64.10;;;;;;5051706;28;20539;-63
2022/09/25 09:24:12;;;;;;;4.50;0.80;;;18.70;63.90;;;;;;5052123;28;20255;-63
2022/09/25 09:26:48;;;;;;;2.90;0.68;;;18.80;64.00;;;;;;5053684;28;20645;-63
2022/09/25 09:29:40;;;;;;;4.32;1.17;;;18.80;63.90;;;;;;5052454;28;20189;-64
2022/09/25 09:32:29;;;;;;;3.67;1.00;;;18.80;63.80;;;;;;5042590;28;20664;-64
2022/09/25 09:35:10;;;;;;;2.28;0.80;;;18.80;63.90;;;;;;5053513;28;20282;-63
2022/09/25 09:38:09;;;;;;;3.35;0.90;;;18.70;64.90;;;;;;5051356;28;20679;-63
2022/09/25 09:41:07;;;;;;;2.72;0.82;;;18.60;64.30;;;;;;5052173;28;20182;-62
2022/09/25 09:43:54;;;;;;;3.47;1.20;;;18.60;64.40;;;;;;5033511;28;20183;-63
2022/09/25 09:46:21;;;;;;;2.28;0.85;;;18.60;64.50;;;;;;5053272;28;20167;-62
2022/09/25 09:49:11;;;;;;;1.58;0.77;;;18.60;64.60;;;;;;5052098;28;20175;-62
2022/09/25 09:51:51;;;;;;;0.85;0.75;;;18.50;64.70;;;;;;5052209;28;20721;-63
2022/09/25 09:54:34;;;;;;;2.53;0.95;;;18.60;64.60;;;;;;5051491;28;20248;-62
2022/09/25 09:57:00;;;;;;;1.10;0.57;;;18.70;64.50;;;;;;5050207;28;20664;-63
2022/09/25 09:59:39;;;;;;;1.73;0.88;;;18.70;64.40;;;;;;5051687;28;20187;-63
2022/09/25 10:02:45;;;;;;;2.08;1.00;;;18.80;64.30;;;;;;5051604;28;20174;-63
2022/09/25 10:05:35;;;;;;;0.73;0.52;;;18.80;64.00;;;;;;5035678;28;20232;-62
2022/09/25 10:08:01;;;;;;;1.67;0.65;;;18.90;64.10;;;;;;5051338;28;20175;-62
2022/09/25 10:10:34;;;;;;;1.55;0.80;;;18.90;63.90;;;;;;5052652;28;20227;-63
2022/09/25 10:13:05;;;;;;;1.40;0.60;;;19.00;63.80;;;;;;5050816;28;20182;-64
2022/09/25 10:15:34;;;;;;;1.98;0.65;;;19.00;63.50;;;;;;5051650;28;20175;-64
2022/09/25 10:18:00;;;;;;;2.83;0.90;;;19.00;63.50;;;;;;5050305;28;20279;-64
2022/09/25 10:20:28;;;;;;;4.47;0.73;;;18.90;63.70;;;;;;5052791;28;20175;-64
2022/09/25 10:22:57;;;;;;;3.13;0.70;;;18.90;63.90;;;;;;5051461;28;20222;-64
2022/09/25 10:25:37;;;;;;;1.10;0.80;;;18.70;63.90;;;;;;5051994;28;20253;-64
2022/09/25 10:28:22;;;;;;;3.22;1.42;;;18.80;64.20;;;;;;5052369;28;20224;-63
2022/09/25 10:30:47;;;;;;;1.92;0.80;;;18.80;64.10;;;;;;5052408;28;20695;-63
2022/09/25 10:33:18;;;;;;;1.25;0.68;;;18.80;64.10;;;;;;5050364;28;20171;-63
2022/09/25 10:35:44;;;;;;;5.55;1.20;;;18.90;64.20;;;;;;5052778;28;20179;-64
2022/09/25 10:38:42;;;;;;;1.98;0.80;;;18.90;64.10;;;;;;5051202;28;20219;-64
2022/09/25 10:41:16;;;;;;;0.80;0.80;;;18.90;63.90;;;;;;5051122;28;20228;-63
2022/09/25 10:43:54;;;;;;;0.50;0.50;;;19.00;63.80;;;;;;5051572;28;20244;-63
2022/09/25 10:52:06;;;;;;;1.35;0.70;;;19.10;63.70;;;;;;5052124;28;20270;-63
2022/09/25 10:54:32;;;;;;;1.77;0.73;;;19.10;63.70;;;;;;5051527;28;20703;-64
2022/09/25 10:56:58;;;;;;;1.55;0.70;;;19.10;63.70;;;;;;5052195;28;20183;-63
2022/09/25 10:59:24;;;;;;;1.05;0.70;;;19.10;63.70;;;;;;5051466;28;20223;-65
2022/09/25 11:01:50;;;;;;;2.38;0.60;;;18.90;63.70;;;;;;5050453;28;20674;-63
2022/09/25 11:04:23;;;;;;;1.77;0.73;;;18.80;63.80;;;;;;5051014;28;20233;-64
2022/09/25 11:06:56;;;;;;;2.60;0.80;;;18.80;63.90;;;;;;5052328;28;20189;-63
2022/09/25 11:09:22;;;;;;;1.75;0.77;;;18.80;64.00;;;;;;5053216;28;20539;-63
2022/09/25 11:11:48;;;;;;;1.88;0.90;;;18.90;64.20;;;;;;5055078;28;20693;-64
2022/09/25 11:14:27;;;;;;;4.15;0.70;;;18.90;63.90;;;;;;5053686;28;20185;-63
2022/09/25 11:16:58;;;;;;;1.55;0.63;;;19.00;63.70;;;;;;5056045;28;20254;-64
2022/09/25 11:19:29;;;;;;;3.70;0.80;;;19.10;63.80;;;;;;5056153;28;20245;-63
2022/09/25 11:22:25;;;;;;;1.05;0.60;;;19.10;63.60;;;;;;5055380;28;20175;-63
2022/09/25 11:25:14;;;;;;;1.23;0.68;;;19.10;63.50;;;;;;5055866;28;20622;-63
2022/09/25 11:27:42;;;;;;;1.65;0.60;;;19.10;63.60;;;;;;5054816;28;20183;-63
2022/09/25 11:30:18;;;;;;;1.02;0.63;;;19.00;63.70;;;;;;5054907;28;20175;-62
2022/09/25 11:33:01;;;;;;;2.03;0.88;;;19.10;63.70;;;;;;5054467;28;20257;-62
2022/09/25 11:35:42;;;;;;;2.13;0.80;;;19.20;63.60;;;;;;5055034;28;20206;-62
2022/09/25 11:41:10;;;;;;;1.55;0.80;;;19.20;63.50;;;;;;5054303;28;20218;-63
2022/09/25 11:41:22;;;;;;;2.53;0.50;;;19.20;63.40;;;;;;5055347;28;20377;-64
2022/09/25 11:44:12;;;;;;;0.93;0.70;;;19.30;63.30;;;;;;5053498;28;20233;-62
2022/09/25 11:46:39;;;;;;;3.10;0.98;;;19.20;63.50;;;;;;5054424;28;20179;-62
2022/09/25 11:49:23;;;;;;;1.70;0.60;;;19.20;63.50;;;;;;5052921;28;20630;-62
2022/09/25 11:52:07;;;;;;;2.50;0.80;;;19.10;63.60;;;;;;5054893;28;20633;-61
2022/09/25 11:54:51;;;;;;;2.38;0.50;;;19.10;63.50;;;;;;5055450;28;20195;-62
2022/09/25 11:57:54;;;;;;;1.10;0.50;;;19.00;63.70;;;;;;5054129;28;20211;-62
2022/09/25 12:00:35;;;;;;;1.67;0.73;;;18.90;63.90;;;;;;5055014;28;20688;-62
2022/09/25 12:03:15;;;;;;;4.43;1.10;;;18.90;64.00;;;;;;5055085;28;20539;-62
2022/09/25 12:05:46;;;;;;;1.15;0.70;;;18.90;63.90;;;;;;5055297;28;20175;-62
2022/09/25 12:08:17;;;;;;;1.48;0.60;;;19.00;63.60;;;;;;5054854;28;20175;-62
2022/09/25 12:11:01;;;;;;;1.52;0.73;;;19.10;63.40;;;;;;5052990;28;20234;-62
2022/09/25 12:13:43;;;;;;;1.67;0.55;;;19.10;63.20;;;;;;5055149;28;20369;-62
2022/09/25 12:16:31;;;;;;;3.03;0.65;;;19.10;63.10;;;;;;5053635;28;20178;-62
2022/09/25 12:19:12;;;;;;;1.95;0.70;;;19.00;63.30;;;;;;5052078;28;20265;-62
2022/09/25 12:22:19;;;;;;;0.77;0.60;;;18.90;63.50;;;;;;5055014;28;20167;-62
2022/09/25 12:25:25;;;;;;;1.35;0.57;;;18.80;63.60;;;;;;5050946;28;20721;-62
2022/09/25 12:27:59;;;;;;;0.80;0.52;;;18.80;63.70;;;;;;5053436;28;20179;-62
2022/09/25 12:30:33;;;;;;;2.17;0.93;;;18.90;63.60;;;;;;5054555;28;20639;-62
2022/09/25 12:33:21;;;;;;;0.80;0.50;;;18.90;63.60;;;;;;5052464;28;20202;-62
2022/09/25 12:35:59;;;;;;;1.27;0.77;;;19.00;63.20;;;;;;5053366;28;20663;-62
2022/09/25 12:39:07;;;;;;;0.90;0.60;;;19.10;63.10;;;;;;5053007;28;20237;-62
2022/09/25 12:41:52;;;;;;;1.02;0.68;;;19.10;62.90;;;;;;5050952;28;20676;-63
2022/09/25 12:44:24;;;;;;;0.55;0.52;;;19.10;62.80;;;;;;5053015;28;20228;-63
2022/09/25 12:47:00;;;;;;;0.50;0.50;;;19.00;63.10;;;;;;5052639;28;20175;-62
2022/09/25 12:49:50;;;;;;;1.10;0.68;;;18.90;63.30;;;;;;5053020;28;20182;-62
2022/09/25 12:52:32;;;;;;;2.38;0.57;;;18.80;63.40;;;;;;5052906;28;20187;-63
2022/09/25 12:55:01;;;;;;;1.05;0.47;;;18.80;63.60;;;;;;5052914;28;20183;-62
2022/09/25 12:57:44;;;;;;;1.23;0.52;;;18.80;63.60;;;;;;5052941;28;20226;-63
2022/09/25 13:00:24;;;;;;;1.30;0.50;;;18.70;63.60;;;;;;5051722;28;20171;-63
2022/09/25 13:03:11;;;;;;;1.70;0.60;;;18.70;63.60;;;;;;5053878;28;20171;-63
2022/09/25 13:06:00;;;;;;;1.58;0.88;;;18.70;63.60;;;;;;5052828;28;20186;-63
2022/09/25 13:08:45;;;;;;;0.70;0.47;;;18.70;63.70;;;;;;5052255;28;20605;-63
2022/09/25 13:11:20;;;;;;;1.02;0.52;;;18.60;63.60;;;;;;5052309;28;20235;-63
2022/09/25 13:13:49;;;;;;;0.40;0.40;;;18.60;63.60;;;;;;5053243;28;20187;-63
2022/09/25 13:16:14;;;;;;;0.50;0.50;;;18.60;63.70;;;;;;5052228;28;20629;-63
2022/09/25 13:18:47;;;;;;;1.30;0.63;;;18.60;63.70;;;;;;5053627;28;20210;-63
2022/09/25 13:21:46;;;;;;;0.75;0.75;;;18.50;63.70;;;;;;5052925;28;20254;-63
2022/09/25 13:24:15;;;;;;;0.70;0.50;;;18.50;63.70;;;;;;5041348;28;20183;-62
2022/09/25 13:26:49;;;;;;;0.93;0.65;;;18.60;63.70;;;;;;5053722;28;20182;-62
2022/09/25 13:29:21;;;;;;;0.95;0.70;;;18.60;63.70;;;;;;5052642;28;20170;-63
2022/09/25 13:31:46;;;;;;;1.05;0.70;;;18.50;63.60;;;;;;5051555;28;20180;-62
2022/09/25 13:34:13;;;;;;;0.68;0.60;;;18.50;63.60;;;;;;5053002;28;20224;-63
2022/09/25 13:36:53;;;;;;;0.43;0.35;;;18.50;63.60;;;;;;5051622;28;20182;-63